This is the latest recevied weather packets stored in our database for station/object SP2FH-13. If no packets are shown the sender has not sent any weather packets the latest 10 day(s).
| Time | Temp. | Humidity | Pressure | Rain* | Wind** | Luminosity | Snow |
|---|---|---|---|---|---|---|---|
| 1777677362 | 7.22° C | 74% | 1014.1 hPa | - | - | - | - |
| 1777677061 | 7.78° C | 72% | 1014.1 hPa | - | - | - | - |
| 1777676760 | 7.78° C | 69% | 1014.1 hPa | - | - | - | - |
| 1777676459 | 7.22° C | 72% | 1014.1 hPa | - | - | - | - |
| 1777676158 | 6.67° C | 78% | 1014.2 hPa | - | - | - | - |
| 1777675857 | 7.22° C | 77% | 1014.1 hPa | - | - | - | - |
| 1777675556 | 7.22° C | 77% | 1014.2 hPa | - | - | - | - |
| 1777675255 | 7.22° C | 77% | 1014.1 hPa | - | - | - | - |
| 1777674953 | 7.22° C | 74% | 1014.2 hPa | - | - | - | - |
| 1777674653 | 8.33° C | 72% | 1014.1 hPa | - | - | - | - |
| 1777674372 | 7.78° C | 71% | 1014.1 hPa | - | - | - | - |
| 1777674052 | 7.78° C | 73% | 1014.1 hPa | - | - | - | - |
| 1777673749 | 7.22° C | 73% | 1014.1 hPa | - | - | - | - |
| 1777673449 | 7.22° C | 76% | 1014.1 hPa | - | - | - | - |
| 1777673147 | 8.89° C | 70% | 1014.1 hPa | - | - | - | - |
| 1777672846 | 8.89° C | 69% | 1014.1 hPa | - | - | - | - |
| 1777672546 | 9.44° C | 68% | 1014 hPa | - | - | - | - |
| 1777672245 | 8.89° C | 68% | 1014.1 hPa | - | - | - | - |
| 1777671944 | 8.89° C | 70% | 1014.1 hPa | - | - | - | - |
| 1777671642 | 9.44° C | 67% | 1014.1 hPa | - | - | - | - |
| 1777671341 | 10° C | 67% | 1014.1 hPa | - | - | - | - |
| 1777671040 | 10° C | 64% | 1014.1 hPa | - | - | - | - |
| 1777670740 | 9.44° C | 67% | 1014.1 hPa | - | - | - | - |
| 1777670439 | 10° C | 66% | 1014 hPa | - | - | - | - |
| 1777670137 | 10° C | 66% | 1014 hPa | - | - | - | - |
* Rain since midnight (hover to see other rain measurements)
** Current wind speed in m/s (hover to see current wind gust speed)